createdAt,value
2023-01-06T09:02:14.728Z,10.96
2023-01-06T09:04:55.254Z,11.01
2023-01-06T09:07:22.594Z,11.08
2023-01-06T09:09:49.970Z,11.05
2023-01-06T09:12:17.353Z,10.99
2023-01-06T09:14:44.755Z,11.18
2023-01-06T09:17:12.145Z,11.26
2023-01-06T09:19:39.505Z,11.33
2023-01-06T09:22:07.274Z,11.17
2023-01-06T09:24:34.673Z,11.29
2023-01-06T09:27:02.058Z,11.15
2023-01-06T09:29:29.445Z,11.15
2023-01-06T09:31:56.778Z,11.33
2023-01-06T09:34:24.160Z,11.37
2023-01-06T09:36:51.491Z,11.34
2023-01-06T09:39:20.120Z,11.41
2023-01-06T09:42:36.895Z,11.52
2023-01-06T09:45:18.261Z,11.56
2023-01-06T09:47:56.194Z,11.68
2023-01-06T09:50:43.973Z,11.72
2023-01-06T09:53:30.583Z,11.68
2023-01-06T09:56:03.095Z,11.75
2023-01-06T09:59:10.670Z,11.76
2023-01-06T10:01:48.758Z,11.89
2023-01-06T10:04:30.962Z,11.86
2023-01-06T10:08:21.518Z,11.63
2023-01-06T10:11:59.588Z,11.89
2023-01-06T10:15:06.617Z,11.81
2023-01-06T10:18:41.518Z,12.02
2023-01-06T10:22:05.611Z,12.05
2023-01-06T10:25:02.881Z,12.43
2023-01-06T10:27:58.504Z,12.50
2023-01-06T10:30:45.752Z,12.48
2023-01-06T10:33:37.476Z,12.56
2023-01-06T10:36:17.186Z,12.64
2023-01-06T10:38:55.685Z,12.56
2023-01-06T10:41:45.744Z,12.49
2023-01-06T10:44:14.075Z,12.65
2023-01-06T10:46:45.266Z,12.35
2023-01-06T10:49:19.401Z,12.28
2023-01-06T10:52:00.641Z,11.97
2023-01-06T10:54:34.200Z,11.81
2023-01-06T10:57:17.964Z,11.79
2023-01-06T11:00:17.415Z,12.02
2023-01-06T11:03:14.284Z,12.20
2023-01-06T11:05:47.312Z,12.32
2023-01-06T11:08:17.007Z,12.18
2023-01-06T11:10:56.323Z,12.14
2023-01-06T11:13:37.089Z,12.22
2023-01-06T11:16:36.952Z,12.31
2023-01-06T11:19:21.536Z,12.23
2023-01-06T11:21:49.076Z,12.05
2023-01-06T11:24:26.989Z,12.04
2023-01-06T11:27:16.190Z,12.20
2023-01-06T11:29:43.633Z,12.30
2023-01-06T11:32:28.625Z,12.22
2023-01-06T11:35:06.521Z,12.21
2023-01-06T11:37:43.389Z,11.98
2023-01-06T11:40:34.216Z,11.83
2023-01-06T11:43:32.652Z,11.87
2023-01-06T11:46:09.232Z,11.44
2023-01-06T11:49:04.003Z,11.52
2023-01-06T11:51:48.959Z,11.63
2023-01-06T11:54:40.536Z,11.79
2023-01-06T11:57:55.970Z,11.71
2023-01-06T12:01:08.231Z,11.77
2023-01-06T12:03:44.977Z,11.84
2023-01-06T12:06:34.568Z,11.83
2023-01-06T12:09:40.718Z,11.97
2023-01-06T12:12:15.834Z,11.99
2023-01-06T12:14:43.223Z,12.05
2023-01-06T12:17:36.051Z,11.92
2023-01-06T12:20:33.442Z,12.11
2023-01-06T12:23:39.834Z,11.88
2023-01-06T12:26:25.254Z,11.69
2023-01-06T12:28:56.273Z,11.67
2023-01-06T12:32:05.459Z,11.77
2023-01-06T12:34:50.325Z,11.89
2023-01-06T12:37:53.586Z,11.91
2023-01-06T12:40:52.632Z,11.88
2023-01-06T12:43:24.776Z,11.79
2023-01-06T12:46:04.932Z,11.81
2023-01-06T12:48:59.332Z,11.88
2023-01-06T12:51:54.556Z,12.00
2023-01-06T12:54:36.498Z,11.81
2023-01-06T12:58:06.362Z,11.85
2023-01-06T13:01:01.544Z,12.00
2023-01-06T13:04:21.184Z,12.07
2023-01-06T13:08:28.412Z,12.17
2023-01-06T13:11:40.250Z,12.16
2023-01-06T13:15:11.817Z,12.15
2023-01-06T13:18:15.204Z,12.10
2023-01-06T13:21:00.624Z,12.31
2023-01-06T13:23:57.124Z,12.03
2023-01-06T13:27:18.902Z,12.21
2023-01-06T13:30:36.191Z,12.15
2023-01-06T13:33:23.582Z,12.01
2023-01-06T13:36:35.096Z,12.18
2023-01-06T13:39:30.713Z,12.11
2023-01-06T13:42:03.981Z,12.22
2023-01-06T13:44:37.387Z,12.02
2023-01-06T13:47:24.471Z,11.97
2023-01-06T13:49:53.033Z,12.12
2023-01-06T13:52:28.915Z,12.28
2023-01-06T13:55:32.729Z,12.20
2023-01-06T13:58:25.764Z,12.22
2023-01-06T14:01:20.792Z,12.12
2023-01-06T14:03:51.576Z,12.07
2023-01-06T14:06:24.967Z,12.06
2023-01-06T14:08:58.574Z,12.16
2023-01-06T14:11:38.849Z,12.11
2023-01-06T14:14:32.885Z,12.07
2023-01-06T14:17:00.455Z,12.12
2023-01-06T14:19:37.986Z,12.12
2023-01-06T14:22:26.236Z,12.30
2023-01-06T14:25:08.647Z,12.23
2023-01-06T14:27:48.054Z,12.13
2023-01-06T14:30:33.758Z,12.15
2023-01-06T14:33:38.225Z,12.08
2023-01-06T14:36:17.539Z,12.14
2023-01-06T14:39:02.402Z,12.18
2023-01-06T14:41:45.556Z,12.19
2023-01-06T14:44:44.225Z,12.28
2023-01-06T14:47:42.671Z,11.97
2023-01-06T14:50:47.467Z,12.06
2023-01-06T14:53:38.875Z,12.27
2023-01-06T14:56:11.363Z,12.21
2023-01-06T14:58:38.735Z,12.26
2023-01-06T15:01:30.876Z,12.01
2023-01-06T15:04:03.169Z,11.99
2023-01-06T15:06:32.349Z,12.08
2023-01-06T15:09:21.047Z,12.05
2023-01-06T15:11:49.351Z,12.15
2023-01-06T15:14:35.291Z,12.06
2023-01-06T15:17:06.796Z,12.10
2023-01-06T15:19:35.745Z,12.07
2023-01-06T15:22:08.750Z,12.17
2023-01-06T15:24:42.894Z,12.17
2023-01-06T15:27:16.560Z,12.19
2023-01-06T15:29:57.251Z,12.04
2023-01-06T15:32:28.107Z,12.02
2023-01-06T15:34:58.107Z,11.89
2023-01-06T15:37:34.750Z,11.88
2023-01-06T15:40:05.212Z,12.02
2023-01-06T15:42:33.037Z,12.01
2023-01-06T15:45:06.746Z,12.08
2023-01-06T15:47:45.813Z,12.05
2023-01-06T15:50:34.200Z,12.10
2023-01-06T15:53:15.960Z,11.91
2023-01-06T15:55:49.081Z,11.91
2023-01-06T15:58:30.507Z,11.86
2023-01-06T16:01:12.014Z,11.92
2023-01-06T16:03:40.100Z,11.89
2023-01-06T16:06:15.460Z,11.96
2023-01-06T16:08:44.189Z,11.89
2023-01-06T16:11:17.339Z,11.75
2023-01-06T16:13:59.036Z,11.82
2023-01-06T16:16:37.922Z,11.89
2023-01-06T16:19:28.145Z,11.81
